首页
METAR-TAF:

METAR-TAF

机场 :

特雷維索, 意大利

纬度: 45-39N, 经度: 012-11E, 海拔: 18米

当前天气观测

该预报发布于32分钟前的16:50 UTC
风速6节,风向,在东南南转西南之间变化
温度 25°C
湿度 32%
气压 1015 hPa
能见度10公里或以上
1500米以下无云,无积雨云

METAR: LIPH 011650Z 18006KT 140V200 CAVOK 25/07 Q1015

时间: 19:22 (17:22 UTC)

预报

该预报发布于4小时和42分钟前的12:40 UTC
预报有效从01日的 12点(UTC)到 02日的 12点(UTC)
风速5节,风向多变
能见度10公里或以上
少量云层高于3000英尺

TAF: LIPH 011240Z 0112/0212 VRB05KT 9999 FEW030

超过4000个机场的气象观测和天气预报(METAR&TAF报告)。

可查询的气象台以黄色和红色小点在地图上表示。

将鼠标移到小点上方,可查看气象台名称。

然后点击查看天气观测和预报。

如需切换地图:点击带黑十字的绿色按钮放大地图;点击带横线的绿色按钮缩小地图;或者点击绿色箭头查看邻近地区的地图。


METAR-TAF: